sensor_id;sensor_type;location;lat;lon;timestamp;P1;durP1;ratioP1;P2;durP2;ratioP2
12567;SDS011;6349;50.904;6.136;2024-03-25T00:00:33;5.50;;;2.40;;
12567;SDS011;6349;50.904;6.136;2024-03-25T00:02:34;6.80;;;2.33;;
12567;SDS011;6349;50.904;6.136;2024-03-25T00:04:35;6.13;;;2.30;;
12567;SDS011;6349;50.904;6.136;2024-03-25T00:06:36;4.00;;;2.07;;
12567;SDS011;6349;50.904;6.136;2024-03-25T00:08:37;5.80;;;2.30;;
12567;SDS011;6349;50.904;6.136;2024-03-25T00:10:37;5.23;;;2.30;;
12567;SDS011;6349;50.904;6.136;2024-03-25T00:12:38;5.27;;;2.80;;
12567;SDS011;6349;50.904;6.136;2024-03-25T00:14:38;5.83;;;2.57;;
12567;SDS011;6349;50.904;6.136;2024-03-25T00:16:39;6.73;;;2.70;;
12567;SDS011;6349;50.904;6.136;2024-03-25T00:18:39;4.80;;;2.17;;
12567;SDS011;6349;50.904;6.136;2024-03-25T00:20:40;8.17;;;2.47;;
12567;SDS011;6349;50.904;6.136;2024-03-25T00:22:41;6.23;;;2.80;;
12567;SDS011;6349;50.904;6.136;2024-03-25T00:24:41;9.00;;;3.10;;
12567;SDS011;6349;50.904;6.136;2024-03-25T00:26:42;6.57;;;2.73;;
12567;SDS011;6349;50.904;6.136;2024-03-25T00:28:43;6.60;;;2.53;;
12567;SDS011;6349;50.904;6.136;2024-03-25T00:30:43;8.00;;;2.50;;
12567;SDS011;6349;50.904;6.136;2024-03-25T00:32:44;5.70;;;2.60;;
12567;SDS011;6349;50.904;6.136;2024-03-25T00:34:45;4.87;;;2.13;;
12567;SDS011;6349;50.904;6.136;2024-03-25T00:36:45;5.63;;;2.83;;
12567;SDS011;6349;50.904;6.136;2024-03-25T00:38:46;7.17;;;2.40;;
12567;SDS011;6349;50.904;6.136;2024-03-25T00:40:46;6.77;;;2.53;;
12567;SDS011;6349;50.904;6.136;2024-03-25T00:42:47;4.70;;;2.27;;
12567;SDS011;6349;50.904;6.136;2024-03-25T00:44:48;5.53;;;2.40;;
12567;SDS011;6349;50.904;6.136;2024-03-25T00:46:48;6.70;;;2.80;;
12567;SDS011;6349;50.904;6.136;2024-03-25T00:48:49;3.67;;;2.10;;
12567;SDS011;6349;50.904;6.136;2024-03-25T00:50:50;6.00;;;2.40;;
12567;SDS011;6349;50.904;6.136;2024-03-25T00:52:50;6.07;;;2.17;;
12567;SDS011;6349;50.904;6.136;2024-03-25T00:54:51;7.63;;;2.10;;
12567;SDS011;6349;50.904;6.136;2024-03-25T00:56:51;7.73;;;2.60;;
12567;SDS011;6349;50.904;6.136;2024-03-25T00:58:53;5.53;;;2.13;;
12567;SDS011;6349;50.904;6.136;2024-03-25T01:00:54;6.40;;;2.43;;
12567;SDS011;6349;50.904;6.136;2024-03-25T01:02:55;7.87;;;2.70;;
12567;SDS011;6349;50.904;6.136;2024-03-25T01:04:56;6.13;;;2.87;;
12567;SDS011;6349;50.904;6.136;2024-03-25T01:06:57;6.47;;;2.67;;
12567;SDS011;6349;50.904;6.136;2024-03-25T01:08:57;4.90;;;2.50;;
12567;SDS011;6349;50.904;6.136;2024-03-25T01:10:58;5.30;;;2.70;;
12567;SDS011;6349;50.904;6.136;2024-03-25T01:12:58;6.90;;;2.50;;
12567;SDS011;6349;50.904;6.136;2024-03-25T01:14:59;5.20;;;2.07;;
12567;SDS011;6349;50.904;6.136;2024-03-25T01:16:59;4.07;;;2.27;;
12567;SDS011;6349;50.904;6.136;2024-03-25T01:19:00;7.37;;;2.53;;
12567;SDS011;6349;50.904;6.136;2024-03-25T01:21:01;5.30;;;2.50;;
12567;SDS011;6349;50.904;6.136;2024-03-25T01:23:01;4.50;;;2.40;;
12567;SDS011;6349;50.904;6.136;2024-03-25T01:25:02;6.30;;;2.43;;
12567;SDS011;6349;50.904;6.136;2024-03-25T01:27:03;4.27;;;2.43;;
12567;SDS011;6349;50.904;6.136;2024-03-25T01:29:04;3.77;;;2.10;;
12567;SDS011;6349;50.904;6.136;2024-03-25T01:31:04;6.77;;;2.40;;
12567;SDS011;6349;50.904;6.136;2024-03-25T01:33:05;8.93;;;2.57;;
12567;SDS011;6349;50.904;6.136;2024-03-25T01:35:06;8.77;;;2.17;;
12567;SDS011;6349;50.904;6.136;2024-03-25T01:37:07;4.43;;;2.43;;
12567;SDS011;6349;50.904;6.136;2024-03-25T01:39:07;9.60;;;2.70;;
12567;SDS011;6349;50.904;6.136;2024-03-25T01:41:09;6.50;;;2.67;;
12567;SDS011;6349;50.904;6.136;2024-03-25T01:43:10;7.27;;;2.30;;
12567;SDS011;6349;50.904;6.136;2024-03-25T01:45:11;8.20;;;2.50;;
12567;SDS011;6349;50.904;6.136;2024-03-25T01:47:12;6.40;;;2.80;;
12567;SDS011;6349;50.904;6.136;2024-03-25T01:49:13;5.33;;;2.30;;
12567;SDS011;6349;50.904;6.136;2024-03-25T01:51:14;4.30;;;1.97;;
12567;SDS011;6349;50.904;6.136;2024-03-25T01:53:17;7.83;;;2.47;;
12567;SDS011;6349;50.904;6.136;2024-03-25T01:55:18;4.63;;;2.23;;
12567;SDS011;6349;50.904;6.136;2024-03-25T01:57:21;6.93;;;2.70;;
12567;SDS011;6349;50.904;6.136;2024-03-25T01:59:22;6.10;;;2.40;;
12567;SDS011;6349;50.904;6.136;2024-03-25T02:01:25;8.60;;;2.60;;
12567;SDS011;6349;50.904;6.136;2024-03-25T02:03:26;6.30;;;2.30;;
12567;SDS011;6349;50.904;6.136;2024-03-25T02:05:28;7.23;;;2.50;;
12567;SDS011;6349;50.904;6.136;2024-03-25T02:07:28;7.33;;;2.33;;
12567;SDS011;6349;50.904;6.136;2024-03-25T02:09:30;6.17;;;2.30;;
12567;SDS011;6349;50.904;6.136;2024-03-25T02:11:32;4.33;;;2.23;;
12567;SDS011;6349;50.904;6.136;2024-03-25T02:13:32;5.00;;;2.50;;
12567;SDS011;6349;50.904;6.136;2024-03-25T02:15:34;7.03;;;2.43;;
12567;SDS011;6349;50.904;6.136;2024-03-25T02:17:36;5.50;;;2.30;;
12567;SDS011;6349;50.904;6.136;2024-03-25T02:19:37;5.50;;;2.40;;
12567;SDS011;6349;50.904;6.136;2024-03-25T02:21:39;7.47;;;2.63;;
12567;SDS011;6349;50.904;6.136;2024-03-25T02:23:39;5.40;;;2.30;;
12567;SDS011;6349;50.904;6.136;2024-03-25T02:25:49;5.17;;;2.10;;
12567;SDS011;6349;50.904;6.136;2024-03-25T02:27:51;5.27;;;2.33;;
12567;SDS011;6349;50.904;6.136;2024-03-25T02:29:51;6.97;;;2.47;;
12567;SDS011;6349;50.904;6.136;2024-03-25T02:31:52;5.50;;;2.20;;
12567;SDS011;6349;50.904;6.136;2024-03-25T02:33:53;3.87;;;2.10;;
12567;SDS011;6349;50.904;6.136;2024-03-25T02:35:54;6.23;;;2.50;;
12567;SDS011;6349;50.904;6.136;2024-03-25T02:37:54;7.30;;;2.60;;
12567;SDS011;6349;50.904;6.136;2024-03-25T02:39:57;5.93;;;2.37;;
12567;SDS011;6349;50.904;6.136;2024-03-25T02:41:58;4.73;;;2.40;;
12567;SDS011;6349;50.904;6.136;2024-03-25T02:43:59;6.23;;;2.63;;
12567;SDS011;6349;50.904;6.136;2024-03-25T02:46:00;4.93;;;2.50;;
12567;SDS011;6349;50.904;6.136;2024-03-25T02:48:01;7.27;;;2.63;;
12567;SDS011;6349;50.904;6.136;2024-03-25T02:50:01;6.67;;;2.30;;
12567;SDS011;6349;50.904;6.136;2024-03-25T02:52:02;5.10;;;2.17;;
12567;SDS011;6349;50.904;6.136;2024-03-25T02:54:03;4.63;;;2.20;;
12567;SDS011;6349;50.904;6.136;2024-03-25T02:56:03;4.73;;;2.20;;
12567;SDS011;6349;50.904;6.136;2024-03-25T02:58:04;6.60;;;2.30;;
12567;SDS011;6349;50.904;6.136;2024-03-25T03:00:05;7.00;;;2.70;;
12567;SDS011;6349;50.904;6.136;2024-03-25T03:02:06;3.53;;;2.00;;
12567;SDS011;6349;50.904;6.136;2024-03-25T03:04:06;4.03;;;2.13;;
12567;SDS011;6349;50.904;6.136;2024-03-25T03:06:07;5.40;;;2.73;;
12567;SDS011;6349;50.904;6.136;2024-03-25T03:08:08;5.07;;;2.40;;
12567;SDS011;6349;50.904;6.136;2024-03-25T03:10:09;4.37;;;1.90;;
12567;SDS011;6349;50.904;6.136;2024-03-25T03:12:10;5.50;;;2.40;;
12567;SDS011;6349;50.904;6.136;2024-03-25T03:14:10;5.90;;;2.10;;
12567;SDS011;6349;50.904;6.136;2024-03-25T03:16:11;4.47;;;2.40;;
12567;SDS011;6349;50.904;6.136;2024-03-25T03:18:11;5.20;;;2.63;;
12567;SDS011;6349;50.904;6.136;2024-03-25T03:20:12;5.43;;;1.90;;
12567;SDS011;6349;50.904;6.136;2024-03-25T03:22:12;4.77;;;2.03;;
12567;SDS011;6349;50.904;6.136;2024-03-25T03:24:13;4.53;;;2.17;;
12567;SDS011;6349;50.904;6.136;2024-03-25T03:26:13;5.00;;;2.37;;
12567;SDS011;6349;50.904;6.136;2024-03-25T03:28:14;3.83;;;2.20;;
12567;SDS011;6349;50.904;6.136;2024-03-25T03:30:15;5.10;;;2.27;;
12567;SDS011;6349;50.904;6.136;2024-03-25T03:32:16;4.30;;;2.30;;
12567;SDS011;6349;50.904;6.136;2024-03-25T03:34:16;5.73;;;2.73;;
12567;SDS011;6349;50.904;6.136;2024-03-25T03:36:18;4.57;;;2.23;;
12567;SDS011;6349;50.904;6.136;2024-03-25T03:38:19;3.80;;;2.20;;
12567;SDS011;6349;50.904;6.136;2024-03-25T03:40:20;2.30;;;2.00;;
12567;SDS011;6349;50.904;6.136;2024-03-25T03:42:20;3.17;;;1.97;;
12567;SDS011;6349;50.904;6.136;2024-03-25T03:44:21;4.33;;;2.43;;
12567;SDS011;6349;50.904;6.136;2024-03-25T03:46:21;3.47;;;2.30;;
12567;SDS011;6349;50.904;6.136;2024-03-25T03:48:22;3.90;;;2.30;;
12567;SDS011;6349;50.904;6.136;2024-03-25T03:50:22;4.63;;;2.57;;
12567;SDS011;6349;50.904;6.136;2024-03-25T03:52:23;5.57;;;2.60;;
12567;SDS011;6349;50.904;6.136;2024-03-25T03:54:24;5.80;;;2.47;;
12567;SDS011;6349;50.904;6.136;2024-03-25T03:56:24;4.80;;;2.40;;
12567;SDS011;6349;50.904;6.136;2024-03-25T03:58:25;5.47;;;2.87;;
12567;SDS011;6349;50.904;6.136;2024-03-25T04:00:25;3.50;;;2.53;;
12567;SDS011;6349;50.904;6.136;2024-03-25T04:02:27;4.07;;;2.47;;
12567;SDS011;6349;50.904;6.136;2024-03-25T04:04:28;5.73;;;2.70;;
12567;SDS011;6349;50.904;6.136;2024-03-25T04:06:29;4.13;;;2.40;;
12567;SDS011;6349;50.904;6.136;2024-03-25T04:08:30;5.13;;;2.60;;
12567;SDS011;6349;50.904;6.136;2024-03-25T04:10:31;3.73;;;2.50;;
12567;SDS011;6349;50.904;6.136;2024-03-25T04:12:31;4.30;;;2.60;;
12567;SDS011;6349;50.904;6.136;2024-03-25T04:14:32;6.67;;;2.87;;
12567;SDS011;6349;50.904;6.136;2024-03-25T04:16:33;3.70;;;2.37;;
12567;SDS011;6349;50.904;6.136;2024-03-25T04:18:33;4.47;;;2.53;;
12567;SDS011;6349;50.904;6.136;2024-03-25T04:20:41;3.10;;;2.10;;
12567;SDS011;6349;50.904;6.136;2024-03-25T04:22:42;4.37;;;2.27;;
12567;SDS011;6349;50.904;6.136;2024-03-25T04:24:43;4.83;;;2.50;;
12567;SDS011;6349;50.904;6.136;2024-03-25T04:26:44;4.57;;;2.47;;
12567;SDS011;6349;50.904;6.136;2024-03-25T04:28:45;4.73;;;2.70;;
12567;SDS011;6349;50.904;6.136;2024-03-25T04:30:52;3.90;;;2.60;;
12567;SDS011;6349;50.904;6.136;2024-03-25T04:32:53;4.33;;;2.70;;
12567;SDS011;6349;50.904;6.136;2024-03-25T04:34:54;4.10;;;2.57;;
12567;SDS011;6349;50.904;6.136;2024-03-25T04:36:54;4.07;;;2.67;;
12567;SDS011;6349;50.904;6.136;2024-03-25T04:38:55;3.20;;;2.47;;
12567;SDS011;6349;50.904;6.136;2024-03-25T04:40:57;4.23;;;2.03;;
12567;SDS011;6349;50.904;6.136;2024-03-25T04:42:57;3.37;;;2.50;;
12567;SDS011;6349;50.904;6.136;2024-03-25T04:44:58;5.07;;;2.83;;
12567;SDS011;6349;50.904;6.136;2024-03-25T04:46:59;3.53;;;2.67;;
12567;SDS011;6349;50.904;6.136;2024-03-25T04:48:59;4.43;;;2.53;;
12567;SDS011;6349;50.904;6.136;2024-03-25T04:51:00;4.30;;;2.80;;
12567;SDS011;6349;50.904;6.136;2024-03-25T04:53:00;5.30;;;2.87;;
12567;SDS011;6349;50.904;6.136;2024-03-25T04:55:01;3.43;;;2.60;;
12567;SDS011;6349;50.904;6.136;2024-03-25T04:57:02;3.33;;;2.47;;
12567;SDS011;6349;50.904;6.136;2024-03-25T04:59:02;4.37;;;2.47;;
12567;SDS011;6349;50.904;6.136;2024-03-25T05:01:03;4.10;;;2.30;;
12567;SDS011;6349;50.904;6.136;2024-03-25T05:03:04;3.17;;;2.37;;
12567;SDS011;6349;50.904;6.136;2024-03-25T05:05:05;3.60;;;2.33;;
12567;SDS011;6349;50.904;6.136;2024-03-25T05:07:07;3.73;;;2.60;;
12567;SDS011;6349;50.904;6.136;2024-03-25T05:09:07;4.17;;;2.30;;
12567;SDS011;6349;50.904;6.136;2024-03-25T05:11:08;3.30;;;2.10;;
12567;SDS011;6349;50.904;6.136;2024-03-25T05:13:08;3.53;;;2.00;;
12567;SDS011;6349;50.904;6.136;2024-03-25T05:15:09;3.20;;;2.40;;
12567;SDS011;6349;50.904;6.136;2024-03-25T05:17:11;2.97;;;2.27;;
12567;SDS011;6349;50.904;6.136;2024-03-25T05:19:11;4.30;;;2.37;;
12567;SDS011;6349;50.904;6.136;2024-03-25T05:21:12;2.93;;;2.40;;
12567;SDS011;6349;50.904;6.136;2024-03-25T05:23:12;4.43;;;2.47;;
12567;SDS011;6349;50.904;6.136;2024-03-25T05:25:13;4.07;;;2.23;;
12567;SDS011;6349;50.904;6.136;2024-03-25T05:27:13;2.60;;;2.20;;
12567;SDS011;6349;50.904;6.136;2024-03-25T05:29:14;4.57;;;2.80;;
12567;SDS011;6349;50.904;6.136;2024-03-25T05:31:14;2.40;;;2.20;;
12567;SDS011;6349;50.904;6.136;2024-03-25T05:33:15;3.33;;;2.03;;
12567;SDS011;6349;50.904;6.136;2024-03-25T05:35:16;3.90;;;2.20;;
12567;SDS011;6349;50.904;6.136;2024-03-25T05:37:16;2.30;;;2.10;;
12567;SDS011;6349;50.904;6.136;2024-03-25T05:39:17;3.50;;;2.10;;
12567;SDS011;6349;50.904;6.136;2024-03-25T05:41:18;3.77;;;2.40;;
12567;SDS011;6349;50.904;6.136;2024-03-25T05:43:19;3.30;;;2.30;;
12567;SDS011;6349;50.904;6.136;2024-03-25T05:45:20;3.73;;;2.50;;
12567;SDS011;6349;50.904;6.136;2024-03-25T05:47:21;3.87;;;2.60;;
12567;SDS011;6349;50.904;6.136;2024-03-25T05:49:21;3.57;;;2.60;;
12567;SDS011;6349;50.904;6.136;2024-03-25T05:51:22;3.43;;;2.50;;
12567;SDS011;6349;50.904;6.136;2024-03-25T05:53:22;4.50;;;2.53;;
12567;SDS011;6349;50.904;6.136;2024-03-25T05:55:23;2.93;;;2.27;;
12567;SDS011;6349;50.904;6.136;2024-03-25T05:57:23;4.47;;;2.70;;
12567;SDS011;6349;50.904;6.136;2024-03-25T05:59:24;3.80;;;2.70;;
12567;SDS011;6349;50.904;6.136;2024-03-25T06:01:25;2.63;;;2.30;;
12567;SDS011;6349;50.904;6.136;2024-03-25T06:03:25;4.27;;;2.73;;
12567;SDS011;6349;50.904;6.136;2024-03-25T06:05:26;2.60;;;2.10;;
12567;SDS011;6349;50.904;6.136;2024-03-25T06:07:26;4.50;;;2.30;;
12567;SDS011;6349;50.904;6.136;2024-03-25T06:09:27;4.40;;;2.60;;
12567;SDS011;6349;50.904;6.136;2024-03-25T06:11:28;3.07;;;2.40;;
12567;SDS011;6349;50.904;6.136;2024-03-25T06:13:28;4.37;;;2.90;;
12567;SDS011;6349;50.904;6.136;2024-03-25T06:15:29;3.73;;;2.70;;
12567;SDS011;6349;50.904;6.136;2024-03-25T06:17:30;3.00;;;2.40;;
12567;SDS011;6349;50.904;6.136;2024-03-25T06:19:30;4.47;;;3.13;;
12567;SDS011;6349;50.904;6.136;2024-03-25T06:21:31;4.80;;;3.17;;
12567;SDS011;6349;50.904;6.136;2024-03-25T06:23:31;3.87;;;3.13;;
12567;SDS011;6349;50.904;6.136;2024-03-25T06:25:32;7.00;;;5.20;;
12567;SDS011;6349;50.904;6.136;2024-03-25T06:27:33;8.47;;;5.87;;
12567;SDS011;6349;50.904;6.136;2024-03-25T06:29:34;9.77;;;6.57;;
12567;SDS011;6349;50.904;6.136;2024-03-25T06:31:35;13.40;;;7.33;;
12567;SDS011;6349;50.904;6.136;2024-03-25T06:33:54;11.07;;;6.77;;
12567;SDS011;6349;50.904;6.136;2024-03-25T06:36:14;12.97;;;7.77;;
12567;SDS011;6349;50.904;6.136;2024-03-25T06:38:14;11.30;;;7.60;;
12567;SDS011;6349;50.904;6.136;2024-03-25T06:40:15;13.00;;;7.57;;
12567;SDS011;6349;50.904;6.136;2024-03-25T06:42:15;12.00;;;7.40;;
12567;SDS011;6349;50.904;6.136;2024-03-25T06:44:16;10.73;;;7.03;;
12567;SDS011;6349;50.904;6.136;2024-03-25T06:46:17;13.27;;;7.60;;
12567;SDS011;6349;50.904;6.136;2024-03-25T06:48:17;11.33;;;8.00;;
12567;SDS011;6349;50.904;6.136;2024-03-25T06:50:18;12.43;;;8.03;;
12567;SDS011;6349;50.904;6.136;2024-03-25T06:52:18;11.63;;;7.87;;
12567;SDS011;6349;50.904;6.136;2024-03-25T06:54:19;11.57;;;7.73;;
12567;SDS011;6349;50.904;6.136;2024-03-25T06:56:19;13.53;;;7.73;;
12567;SDS011;6349;50.904;6.136;2024-03-25T06:58:20;12.03;;;7.67;;
12567;SDS011;6349;50.904;6.136;2024-03-25T07:00:21;14.03;;;8.00;;
12567;SDS011;6349;50.904;6.136;2024-03-25T07:02:22;11.47;;;7.77;;
12567;SDS011;6349;50.904;6.136;2024-03-25T07:04:22;14.13;;;7.47;;
12567;SDS011;6349;50.904;6.136;2024-03-25T07:06:23;11.60;;;8.40;;
12567;SDS011;6349;50.904;6.136;2024-03-25T07:08:25;11.60;;;8.10;;
12567;SDS011;6349;50.904;6.136;2024-03-25T07:10:27;10.83;;;7.67;;
12567;SDS011;6349;50.904;6.136;2024-03-25T07:12:27;10.33;;;7.77;;
12567;SDS011;6349;50.904;6.136;2024-03-25T07:14:28;11.60;;;8.20;;
12567;SDS011;6349;50.904;6.136;2024-03-25T07:16:29;12.27;;;7.77;;
12567;SDS011;6349;50.904;6.136;2024-03-25T07:18:29;13.47;;;8.70;;
12567;SDS011;6349;50.904;6.136;2024-03-25T07:20:30;10.27;;;7.37;;
12567;SDS011;6349;50.904;6.136;2024-03-25T07:22:32;10.60;;;7.53;;
12567;SDS011;6349;50.904;6.136;2024-03-25T07:24:32;11.00;;;7.30;;
12567;SDS011;6349;50.904;6.136;2024-03-25T07:26:33;11.77;;;7.50;;
12567;SDS011;6349;50.904;6.136;2024-03-25T07:28:33;11.17;;;7.00;;
12567;SDS011;6349;50.904;6.136;2024-03-25T07:30:34;11.53;;;7.93;;
12567;SDS011;6349;50.904;6.136;2024-03-25T07:32:34;10.33;;;7.27;;
12567;SDS011;6349;50.904;6.136;2024-03-25T07:34:35;10.83;;;7.30;;
12567;SDS011;6349;50.904;6.136;2024-03-25T07:36:35;10.10;;;6.70;;
12567;SDS011;6349;50.904;6.136;2024-03-25T07:38:36;11.60;;;7.33;;
12567;SDS011;6349;50.904;6.136;2024-03-25T07:40:37;9.80;;;6.77;;
12567;SDS011;6349;50.904;6.136;2024-03-25T07:42:38;10.23;;;6.93;;
12567;SDS011;6349;50.904;6.136;2024-03-25T07:44:39;11.17;;;7.50;;
12567;SDS011;6349;50.904;6.136;2024-03-25T07:46:40;9.93;;;6.73;;
12567;SDS011;6349;50.904;6.136;2024-03-25T07:48:40;10.03;;;6.60;;
12567;SDS011;6349;50.904;6.136;2024-03-25T07:50:42;10.97;;;7.47;;
12567;SDS011;6349;50.904;6.136;2024-03-25T07:52:42;10.27;;;6.93;;
12567;SDS011;6349;50.904;6.136;2024-03-25T07:54:43;8.80;;;6.27;;
12567;SDS011;6349;50.904;6.136;2024-03-25T07:56:44;7.33;;;5.60;;
12567;SDS011;6349;50.904;6.136;2024-03-25T07:58:44;9.13;;;6.27;;
12567;SDS011;6349;50.904;6.136;2024-03-25T08:00:45;9.20;;;6.60;;
12567;SDS011;6349;50.904;6.136;2024-03-25T08:02:45;8.50;;;6.53;;
12567;SDS011;6349;50.904;6.136;2024-03-25T08:04:46;7.60;;;5.77;;
12567;SDS011;6349;50.904;6.136;2024-03-25T08:06:46;9.47;;;6.07;;
12567;SDS011;6349;50.904;6.136;2024-03-25T08:08:47;9.50;;;5.93;;
12567;SDS011;6349;50.904;6.136;2024-03-25T08:10:48;8.63;;;5.30;;
12567;SDS011;6349;50.904;6.136;2024-03-25T08:12:48;8.07;;;5.67;;
12567;SDS011;6349;50.904;6.136;2024-03-25T08:14:49;8.57;;;5.50;;
12567;SDS011;6349;50.904;6.136;2024-03-25T08:16:49;8.43;;;5.07;;
12567;SDS011;6349;50.904;6.136;2024-03-25T08:18:50;8.73;;;5.23;;
12567;SDS011;6349;50.904;6.136;2024-03-25T08:20:51;9.60;;;5.53;;
12567;SDS011;6349;50.904;6.136;2024-03-25T08:22:51;9.13;;;5.83;;
12567;SDS011;6349;50.904;6.136;2024-03-25T08:24:52;9.97;;;5.73;;
12567;SDS011;6349;50.904;6.136;2024-03-25T08:26:52;8.03;;;5.20;;
12567;SDS011;6349;50.904;6.136;2024-03-25T08:28:53;7.53;;;5.10;;
12567;SDS011;6349;50.904;6.136;2024-03-25T08:30:53;8.37;;;5.27;;
12567;SDS011;6349;50.904;6.136;2024-03-25T08:32:54;7.73;;;5.13;;
12567;SDS011;6349;50.904;6.136;2024-03-25T08:34:54;8.00;;;5.50;;
12567;SDS011;6349;50.904;6.136;2024-03-25T08:36:55;6.93;;;4.90;;
12567;SDS011;6349;50.904;6.136;2024-03-25T08:38:55;6.67;;;5.17;;
12567;SDS011;6349;50.904;6.136;2024-03-25T08:40:56;7.13;;;4.97;;
12567;SDS011;6349;50.904;6.136;2024-03-25T08:42:57;7.70;;;5.37;;
12567;SDS011;6349;50.904;6.136;2024-03-25T08:44:58;8.00;;;5.03;;
12567;SDS011;6349;50.904;6.136;2024-03-25T08:46:59;7.27;;;4.73;;
12567;SDS011;6349;50.904;6.136;2024-03-25T08:49:00;7.37;;;5.20;;
12567;SDS011;6349;50.904;6.136;2024-03-25T08:51:00;6.93;;;4.57;;
12567;SDS011;6349;50.904;6.136;2024-03-25T08:53:01;6.13;;;4.73;;
12567;SDS011;6349;50.904;6.136;2024-03-25T08:55:03;6.67;;;4.47;;
12567;SDS011;6349;50.904;6.136;2024-03-25T08:57:04;7.03;;;4.47;;
12567;SDS011;6349;50.904;6.136;2024-03-25T08:59:05;6.23;;;4.53;;
12567;SDS011;6349;50.904;6.136;2024-03-25T09:01:06;6.27;;;4.13;;
12567;SDS011;6349;50.904;6.136;2024-03-25T09:03:07;7.67;;;4.23;;
12567;SDS011;6349;50.904;6.136;2024-03-25T09:05:08;5.67;;;3.60;;
12567;SDS011;6349;50.904;6.136;2024-03-25T09:07:09;5.00;;;3.67;;
12567;SDS011;6349;50.904;6.136;2024-03-25T09:09:10;4.67;;;3.93;;
12567;SDS011;6349;50.904;6.136;2024-03-25T09:11:29;7.53;;;4.23;;
12567;SDS011;6349;50.904;6.136;2024-03-25T09:13:30;4.60;;;3.63;;
12567;SDS011;6349;50.904;6.136;2024-03-25T09:15:31;5.40;;;3.40;;
12567;SDS011;6349;50.904;6.136;2024-03-25T09:17:31;4.80;;;3.30;;
12567;SDS011;6349;50.904;6.136;2024-03-25T09:19:32;6.07;;;3.20;;
12567;SDS011;6349;50.904;6.136;2024-03-25T09:21:33;4.33;;;3.20;;
12567;SDS011;6349;50.904;6.136;2024-03-25T09:23:33;6.17;;;3.63;;
12567;SDS011;6349;50.904;6.136;2024-03-25T09:25:34;5.50;;;3.10;;
12567;SDS011;6349;50.904;6.136;2024-03-25T09:27:34;5.07;;;3.50;;
12567;SDS011;6349;50.904;6.136;2024-03-25T09:29:35;1.73;;;1.53;;
12567;SDS011;6349;50.904;6.136;2024-03-25T09:31:35;2.70;;;1.90;;
12567;SDS011;6349;50.904;6.136;2024-03-25T09:33:36;3.83;;;2.00;;
12567;SDS011;6349;50.904;6.136;2024-03-25T09:35:37;4.07;;;2.13;;
12567;SDS011;6349;50.904;6.136;2024-03-25T09:37:37;3.30;;;1.63;;
12567;SDS011;6349;50.904;6.136;2024-03-25T09:39:38;3.23;;;2.17;;
12567;SDS011;6349;50.904;6.136;2024-03-25T09:41:39;3.17;;;2.20;;
12567;SDS011;6349;50.904;6.136;2024-03-25T09:43:47;3.90;;;2.30;;
12567;SDS011;6349;50.904;6.136;2024-03-25T09:45:52;2.93;;;2.10;;
12567;SDS011;6349;50.904;6.136;2024-03-25T09:47:54;2.50;;;1.87;;
12567;SDS011;6349;50.904;6.136;2024-03-25T09:49:55;3.50;;;2.07;;
12567;SDS011;6349;50.904;6.136;2024-03-25T09:51:58;2.90;;;1.70;;
12567;SDS011;6349;50.904;6.136;2024-03-25T09:53:58;2.97;;;1.80;;
12567;SDS011;6349;50.904;6.136;2024-03-25T09:55:59;2.67;;;1.73;;
12567;SDS011;6349;50.904;6.136;2024-03-25T09:58:00;3.03;;;1.80;;
12567;SDS011;6349;50.904;6.136;2024-03-25T10:00:02;2.80;;;1.90;;
12567;SDS011;6349;50.904;6.136;2024-03-25T10:02:04;2.07;;;1.43;;
12567;SDS011;6349;50.904;6.136;2024-03-25T10:04:07;3.07;;;1.50;;
12567;SDS011;6349;50.904;6.136;2024-03-25T10:06:08;1.20;;;1.00;;
12567;SDS011;6349;50.904;6.136;2024-03-25T10:08:10;2.87;;;1.30;;
12567;SDS011;6349;50.904;6.136;2024-03-25T10:10:10;1.63;;;1.10;;
12567;SDS011;6349;50.904;6.136;2024-03-25T10:12:12;1.60;;;1.10;;
12567;SDS011;6349;50.904;6.136;2024-03-25T10:14:13;1.30;;;1.13;;
12567;SDS011;6349;50.904;6.136;2024-03-25T10:16:14;3.07;;;1.23;;
12567;SDS011;6349;50.904;6.136;2024-03-25T10:18:14;1.90;;;1.10;;
12567;SDS011;6349;50.904;6.136;2024-03-25T10:20:15;1.30;;;1.20;;
12567;SDS011;6349;50.904;6.136;2024-03-25T10:22:16;2.67;;;1.40;;
12567;SDS011;6349;50.904;6.136;2024-03-25T10:24:17;2.10;;;1.50;;
12567;SDS011;6349;50.904;6.136;2024-03-25T10:26:25;2.40;;;1.57;;
12567;SDS011;6349;50.904;6.136;2024-03-25T10:28:26;2.83;;;1.60;;
12567;SDS011;6349;50.904;6.136;2024-03-25T10:30:27;2.73;;;1.60;;
12567;SDS011;6349;50.904;6.136;2024-03-25T10:32:29;2.77;;;1.57;;
12567;SDS011;6349;50.904;6.136;2024-03-25T10:34:30;3.40;;;1.90;;
12567;SDS011;6349;50.904;6.136;2024-03-25T10:36:30;2.30;;;1.60;;
12567;SDS011;6349;50.904;6.136;2024-03-25T10:38:31;4.37;;;2.27;;
12567;SDS011;6349;50.904;6.136;2024-03-25T10:40:34;2.10;;;1.70;;
12567;SDS011;6349;50.904;6.136;2024-03-25T10:42:36;3.87;;;1.70;;
12567;SDS011;6349;50.904;6.136;2024-03-25T10:44:42;3.53;;;1.80;;
12567;SDS011;6349;50.904;6.136;2024-03-25T10:46:43;2.43;;;1.70;;
12567;SDS011;6349;50.904;6.136;2024-03-25T10:50:57;2.83;;;2.00;;
12567;SDS011;6349;50.904;6.136;2024-03-25T10:53:00;2.60;;;1.80;;
12567;SDS011;6349;50.904;6.136;2024-03-25T10:55:02;3.10;;;1.63;;
12567;SDS011;6349;50.904;6.136;2024-03-25T10:57:03;3.07;;;1.90;;
12567;SDS011;6349;50.904;6.136;2024-03-25T10:59:05;4.37;;;1.87;;
12567;SDS011;6349;50.904;6.136;2024-03-25T11:01:10;4.00;;;2.03;;
12567;SDS011;6349;50.904;6.136;2024-03-25T11:03:10;2.27;;;1.30;;
12567;SDS011;6349;50.904;6.136;2024-03-25T11:05:11;2.60;;;1.60;;
12567;SDS011;6349;50.904;6.136;2024-03-25T11:07:12;2.00;;;1.37;;
12567;SDS011;6349;50.904;6.136;2024-03-25T11:09:23;1.83;;;1.30;;
12567;SDS011;6349;50.904;6.136;2024-03-25T11:11:32;2.70;;;1.80;;
12567;SDS011;6349;50.904;6.136;2024-03-25T11:13:33;3.43;;;2.10;;
12567;SDS011;6349;50.904;6.136;2024-03-25T11:15:38;3.33;;;2.10;;
12567;SDS011;6349;50.904;6.136;2024-03-25T11:17:49;4.13;;;2.10;;
12567;SDS011;6349;50.904;6.136;2024-03-25T11:19:51;3.00;;;2.07;;
12567;SDS011;6349;50.904;6.136;2024-03-25T11:21:52;3.20;;;2.20;;
12567;SDS011;6349;50.904;6.136;2024-03-25T11:23:53;3.60;;;2.30;;
12567;SDS011;6349;50.904;6.136;2024-03-25T11:25:56;2.13;;;1.80;;
12567;SDS011;6349;50.904;6.136;2024-03-25T11:27:57;3.37;;;2.23;;
12567;SDS011;6349;50.904;6.136;2024-03-25T11:29:57;2.67;;;1.90;;
12567;SDS011;6349;50.904;6.136;2024-03-25T11:32:05;5.13;;;2.60;;
12567;SDS011;6349;50.904;6.136;2024-03-25T11:34:06;3.50;;;2.10;;
12567;SDS011;6349;50.904;6.136;2024-03-25T11:36:09;2.77;;;1.70;;
12567;SDS011;6349;50.904;6.136;2024-03-25T11:38:09;2.40;;;1.90;;
12567;SDS011;6349;50.904;6.136;2024-03-25T11:40:10;4.43;;;2.27;;
12567;SDS011;6349;50.904;6.136;2024-03-25T11:42:14;4.60;;;2.53;;
12567;SDS011;6349;50.904;6.136;2024-03-25T11:44:14;3.23;;;2.03;;
12567;SDS011;6349;50.904;6.136;2024-03-25T11:46:18;3.17;;;2.07;;
12567;SDS011;6349;50.904;6.136;2024-03-25T11:48:19;3.40;;;2.00;;
12567;SDS011;6349;50.904;6.136;2024-03-25T11:50:20;2.53;;;1.80;;
12567;SDS011;6349;50.904;6.136;2024-03-25T11:52:21;3.77;;;2.03;;
12567;SDS011;6349;50.904;6.136;2024-03-25T11:54:21;3.03;;;2.13;;
12567;SDS011;6349;50.904;6.136;2024-03-25T11:56:22;2.33;;;1.80;;
12567;SDS011;6349;50.904;6.136;2024-03-25T11:58:22;3.63;;;2.27;;
12567;SDS011;6349;50.904;6.136;2024-03-25T12:00:24;4.47;;;2.20;;
12567;SDS011;6349;50.904;6.136;2024-03-25T12:02:25;3.47;;;2.03;;
12567;SDS011;6349;50.904;6.136;2024-03-25T12:04:25;2.57;;;2.00;;
12567;SDS011;6349;50.904;6.136;2024-03-25T12:06:27;3.30;;;2.20;;
12567;SDS011;6349;50.904;6.136;2024-03-25T12:08:27;3.77;;;1.73;;
12567;SDS011;6349;50.904;6.136;2024-03-25T12:10:30;3.17;;;2.13;;
12567;SDS011;6349;50.904;6.136;2024-03-25T12:12:50;2.63;;;1.90;;
12567;SDS011;6349;50.904;6.136;2024-03-25T12:14:51;3.53;;;2.30;;
12567;SDS011;6349;50.904;6.136;2024-03-25T12:16:53;4.30;;;2.20;;
12567;SDS011;6349;50.904;6.136;2024-03-25T12:18:54;3.27;;;2.10;;
12567;SDS011;6349;50.904;6.136;2024-03-25T12:20:56;2.80;;;1.90;;
12567;SDS011;6349;50.904;6.136;2024-03-25T12:22:57;3.17;;;2.00;;